createdAt,value
2022-11-30T00:01:31.506Z,8.60
2022-11-30T00:03:59.662Z,10.18
2022-11-30T00:06:27.947Z,10.43
2022-11-30T00:08:56.786Z,10.25
2022-11-30T00:11:28.479Z,10.63
2022-11-30T00:13:56.827Z,9.70
2022-11-30T00:16:25.066Z,9.70
2022-11-30T00:18:53.304Z,10.77
2022-11-30T00:21:21.345Z,8.80
2022-11-30T00:23:50.062Z,10.43
2022-11-30T00:26:20.596Z,9.88
2022-11-30T00:28:50.772Z,9.25
2022-11-30T00:31:20.192Z,9.35
2022-11-30T00:33:48.460Z,9.73
2022-11-30T00:36:18.482Z,9.32
2022-11-30T00:38:47.352Z,9.77
2022-11-30T00:41:16.147Z,8.95
2022-11-30T00:43:44.253Z,9.75
2022-11-30T00:46:13.891Z,8.98
2022-11-30T00:48:42.775Z,10.13
2022-11-30T00:51:12.339Z,9.73
2022-11-30T00:53:43.296Z,9.05
2022-11-30T00:56:12.331Z,10.60
2022-11-30T00:58:40.542Z,11.40
2022-11-30T01:01:11.098Z,11.32
2022-11-30T01:03:40.635Z,12.98
2022-11-30T01:06:10.504Z,11.50
2022-11-30T01:08:38.800Z,11.30
2022-11-30T01:11:09.620Z,11.05
2022-11-30T01:13:37.696Z,11.73
2022-11-30T01:16:11.671Z,10.40
2022-11-30T01:18:41.176Z,13.75
2022-11-30T01:21:14.400Z,12.48
2022-11-30T01:23:43.253Z,14.48
2022-11-30T01:26:11.737Z,13.95
2022-11-30T01:28:40.812Z,15.13
2022-11-30T01:31:11.038Z,15.60
2022-11-30T01:33:40.775Z,17.27
2022-11-30T01:36:12.407Z,15.20
2022-11-30T01:38:42.556Z,16.42
2022-11-30T01:41:13.114Z,16.30
2022-11-30T01:43:43.470Z,17.77
2022-11-30T01:46:28.612Z,16.45
2022-11-30T01:49:04.203Z,15.98
2022-11-30T01:51:38.120Z,13.57
2022-11-30T01:54:09.839Z,14.65
2022-11-30T01:56:40.941Z,14.95
2022-11-30T01:59:09.765Z,16.13
2022-11-30T02:01:37.923Z,16.67
2022-11-30T02:04:12.101Z,13.82
2022-11-30T02:06:40.291Z,14.80
2022-11-30T02:09:09.425Z,17.90
2022-11-30T02:11:37.615Z,14.43
2022-11-30T02:14:18.634Z,15.85
2022-11-30T02:16:57.135Z,16.10
2022-11-30T02:19:59.260Z,14.15
2022-11-30T02:22:43.068Z,14.60
2022-11-30T02:25:23.110Z,16.50
2022-11-30T02:28:08.831Z,14.50
2022-11-30T02:30:42.556Z,13.52
2022-11-30T02:33:16.081Z,13.75
2022-11-30T02:35:51.648Z,13.95
2022-11-30T02:38:23.780Z,13.80
2022-11-30T02:40:51.974Z,12.88
2022-11-30T02:43:22.455Z,12.75
2022-11-30T02:45:59.159Z,12.57
2022-11-30T02:48:32.907Z,13.43
2022-11-30T02:51:03.656Z,12.15
2022-11-30T02:53:34.383Z,12.43
2022-11-30T02:56:02.503Z,15.18
2022-11-30T02:58:30.677Z,12.27
2022-11-30T03:01:00.168Z,13.55
2022-11-30T03:03:28.320Z,12.48
2022-11-30T03:05:56.565Z,14.75
2022-11-30T03:08:24.829Z,13.70
2022-11-30T03:10:52.916Z,14.55
2022-11-30T03:13:21.068Z,15.15
2022-11-30T03:15:49.196Z,17.13
2022-11-30T03:18:18.747Z,18.13
2022-11-30T03:20:47.104Z,14.95
2022-11-30T03:23:17.942Z,13.60
2022-11-30T03:25:46.161Z,15.30
2022-11-30T03:28:16.360Z,12.50
2022-11-30T03:30:49.887Z,13.18
2022-11-30T03:33:19.953Z,14.55
2022-11-30T03:35:48.651Z,14.40
2022-11-30T03:38:16.782Z,13.95
2022-11-30T03:40:44.934Z,14.23
2022-11-30T03:43:13.089Z,14.63
2022-11-30T03:45:41.156Z,13.00
2022-11-30T03:48:09.322Z,14.13
2022-11-30T03:50:38.863Z,14.80
2022-11-30T03:53:06.935Z,14.68
2022-11-30T03:55:35.546Z,13.70
2022-11-30T03:58:03.621Z,13.82
2022-11-30T04:00:31.716Z,14.55
2022-11-30T04:02:59.762Z,13.63
2022-11-30T04:05:27.865Z,15.10
2022-11-30T04:07:57.289Z,15.57
2022-11-30T04:10:25.481Z,16.33
2022-11-30T04:12:53.431Z,15.18
2022-11-30T04:15:21.472Z,17.13
2022-11-30T04:17:49.548Z,17.63
2022-11-30T04:20:17.732Z,16.33
2022-11-30T04:22:46.042Z,16.52
2022-11-30T04:25:15.427Z,15.38
2022-11-30T04:27:47.848Z,14.75
2022-11-30T04:30:17.281Z,18.75
2022-11-30T04:32:45.337Z,15.93
2022-11-30T04:35:13.417Z,16.63
2022-11-30T04:37:41.631Z,16.42
2022-11-30T04:40:10.716Z,17.80
2022-11-30T04:42:40.212Z,18.38
2022-11-30T04:45:09.594Z,17.00
2022-11-30T04:47:38.022Z,18.08
2022-11-30T04:50:07.936Z,17.45
2022-11-30T04:52:36.586Z,15.77
2022-11-30T04:55:08.025Z,18.27
2022-11-30T04:57:40.059Z,20.33
2022-11-30T05:00:09.730Z,19.23
2022-11-30T05:02:37.782Z,20.40
2022-11-30T05:05:06.510Z,18.48
2022-11-30T05:07:34.905Z,20.23
2022-11-30T05:10:03.077Z,22.80
2022-11-30T05:12:31.126Z,24.83
2022-11-30T05:15:00.694Z,22.83
2022-11-30T05:17:28.769Z,23.80
2022-11-30T05:19:56.915Z,23.90
2022-11-30T05:22:27.073Z,25.13
2022-11-30T05:24:55.158Z,26.25
2022-11-30T05:27:23.203Z,23.35
2022-11-30T05:29:51.191Z,23.95
2022-11-30T05:32:20.687Z,25.10
2022-11-30T05:34:51.579Z,26.08
2022-11-30T05:37:20.228Z,23.83
2022-11-30T05:39:48.255Z,26.23
2022-11-30T05:42:16.343Z,26.15
2022-11-30T05:44:45.379Z,25.08
2022-11-30T05:47:13.994Z,24.45
2022-11-30T05:49:43.599Z,24.65
2022-11-30T05:52:11.889Z,25.70
2022-11-30T05:54:39.920Z,28.17
2022-11-30T05:57:07.949Z,27.73
2022-11-30T05:59:35.951Z,26.25
2022-11-30T06:02:04.149Z,27.40
2022-11-30T06:04:33.574Z,28.20
2022-11-30T06:07:02.944Z,24.88
2022-11-30T06:09:31.080Z,26.00
2022-11-30T06:11:59.144Z,25.67
2022-11-30T06:14:27.342Z,26.02
2022-11-30T06:16:55.312Z,30.83
2022-11-30T06:19:23.374Z,25.17
2022-11-30T06:21:51.438Z,24.70
2022-11-30T06:24:20.938Z,25.75
2022-11-30T06:26:49.047Z,27.92
2022-11-30T06:29:17.154Z,25.85
2022-11-30T06:31:45.277Z,26.90
2022-11-30T06:34:13.331Z,34.38
2022-11-30T06:36:41.472Z,38.85
2022-11-30T06:39:11.962Z,29.52
2022-11-30T06:41:41.509Z,27.70
2022-11-30T06:44:12.143Z,27.55
2022-11-30T06:46:40.271Z,27.95
2022-11-30T06:49:08.591Z,25.85
2022-11-30T06:51:39.683Z,32.20
2022-11-30T06:54:08.021Z,27.88
2022-11-30T06:56:36.126Z,35.10
2022-11-30T06:59:05.564Z,33.75
2022-11-30T07:01:33.808Z,29.75
2022-11-30T07:04:01.954Z,28.15
2022-11-30T07:06:30.139Z,30.98
2022-11-30T07:08:58.150Z,28.02
2022-11-30T07:11:27.446Z,27.88
2022-11-30T07:13:56.510Z,27.27
2022-11-30T07:16:26.057Z,30.45
2022-11-30T07:18:54.386Z,28.02
2022-11-30T07:21:22.616Z,28.55
2022-11-30T07:24:13.265Z,29.35
2022-11-30T07:26:41.385Z,31.67
2022-11-30T07:29:09.533Z,30.42
2022-11-30T07:31:39.132Z,27.63
2022-11-30T07:34:10.329Z,28.83
2022-11-30T07:36:38.452Z,27.98
2022-11-30T07:39:06.629Z,30.50
2022-11-30T07:41:34.769Z,31.10
2022-11-30T07:44:05.697Z,33.63
2022-11-30T07:46:36.286Z,32.72
2022-11-30T07:49:06.931Z,31.50
2022-11-30T07:51:35.189Z,28.75
2022-11-30T07:54:04.482Z,27.40
2022-11-30T07:56:33.642Z,28.00
2022-11-30T07:59:03.221Z,29.35
2022-11-30T08:01:33.230Z,32.13
2022-11-30T08:04:01.961Z,29.00
2022-11-30T08:06:32.633Z,30.30
2022-11-30T08:09:04.394Z,29.33
2022-11-30T08:11:37.121Z,28.52
2022-11-30T08:14:05.563Z,32.10
2022-11-30T08:16:38.495Z,34.17
2022-11-30T08:19:07.098Z,28.25
2022-11-30T08:21:38.025Z,29.63
2022-11-30T08:24:06.777Z,27.52
2022-11-30T08:26:35.487Z,30.95
2022-11-30T08:29:05.047Z,28.33
2022-11-30T08:31:36.342Z,27.90
2022-11-30T08:34:06.928Z,27.40
2022-11-30T08:36:37.468Z,31.15
2022-11-30T08:39:07.111Z,28.73
2022-11-30T08:41:36.360Z,28.65
2022-11-30T08:44:04.539Z,28.55
2022-11-30T08:49:23.721Z,28.33
2022-11-30T08:54:46.096Z,28.55
2022-11-30T08:57:15.077Z,28.60
2022-11-30T08:59:43.153Z,29.67
2022-11-30T09:02:12.258Z,30.15
2022-11-30T09:04:40.367Z,33.72
2022-11-30T09:07:09.786Z,33.22
2022-11-30T09:09:38.215Z,31.45
2022-11-30T09:12:06.771Z,34.17
2022-11-30T09:14:36.394Z,30.52
2022-11-30T09:17:06.815Z,28.10
2022-11-30T09:19:34.840Z,30.83
2022-11-30T09:22:04.010Z,33.63
2022-11-30T09:24:33.564Z,34.10
2022-11-30T09:27:01.675Z,30.15
2022-11-30T09:29:29.922Z,30.02
2022-11-30T09:31:57.983Z,30.90
2022-11-30T09:34:26.065Z,26.70
2022-11-30T09:36:55.122Z,26.30
2022-11-30T09:39:23.525Z,25.13
2022-11-30T09:42:13.522Z,23.42
2022-11-30T09:44:52.991Z,26.25
2022-11-30T09:47:36.595Z,25.17
2022-11-30T09:50:11.153Z,26.17
2022-11-30T09:52:43.756Z,26.77
2022-11-30T09:55:14.982Z,24.77
2022-11-30T09:57:48.707Z,26.33
2022-11-30T10:00:19.050Z,24.23
2022-11-30T10:02:47.759Z,20.35
2022-11-30T10:05:18.317Z,25.60
2022-11-30T10:07:59.316Z,24.33
2022-11-30T10:10:37.344Z,24.05
2022-11-30T10:13:21.187Z,22.95
2022-11-30T10:16:01.667Z,24.58
2022-11-30T10:18:41.884Z,23.38
2022-11-30T10:21:24.664Z,26.23
2022-11-30T10:24:05.822Z,23.27
2022-11-30T10:26:38.677Z,25.20
2022-11-30T10:29:18.187Z,23.38
2022-11-30T10:31:48.375Z,23.45
2022-11-30T10:34:21.585Z,27.45
2022-11-30T10:36:55.143Z,24.65
2022-11-30T10:39:29.552Z,23.98
2022-11-30T10:42:05.164Z,24.08
2022-11-30T10:44:39.943Z,21.63
2022-11-30T10:47:17.430Z,23.33
2022-11-30T10:49:50.087Z,24.02
2022-11-30T10:52:23.579Z,23.50
2022-11-30T10:54:57.998Z,21.55
2022-11-30T10:57:32.840Z,25.55
2022-11-30T11:00:06.443Z,23.13
2022-11-30T11:02:41.139Z,25.40
2022-11-30T11:05:19.064Z,23.95
2022-11-30T11:07:51.329Z,26.58
2022-11-30T11:10:22.499Z,28.15
2022-11-30T11:12:52.758Z,25.17
2022-11-30T11:15:24.800Z,24.05
2022-11-30T11:17:54.434Z,23.45
2022-11-30T11:20:32.571Z,27.85
2022-11-30T11:23:00.919Z,24.60
2022-11-30T11:25:34.748Z,24.17
2022-11-30T11:28:09.129Z,22.35
2022-11-30T11:30:39.198Z,24.02
2022-11-30T11:33:21.621Z,24.42
2022-11-30T11:35:51.533Z,22.20
2022-11-30T11:38:21.801Z,25.50
2022-11-30T11:41:12.154Z,21.27
2022-11-30T11:44:00.855Z,24.13
2022-11-30T11:46:33.117Z,23.60
2022-11-30T11:49:05.273Z,20.88
2022-11-30T11:52:04.490Z,22.88
2022-11-30T11:54:36.422Z,22.20
2022-11-30T11:57:08.531Z,22.20
2022-11-30T11:59:43.112Z,22.75
2022-11-30T12:02:25.163Z,24.27
2022-11-30T12:04:55.466Z,22.85
2022-11-30T12:07:30.418Z,23.02
2022-11-30T12:13:20.773Z,23.05
2022-11-30T12:16:00.203Z,21.38
2022-11-30T12:18:38.573Z,19.95
2022-11-30T12:21:14.552Z,21.65
2022-11-30T12:24:09.149Z,21.10
2022-11-30T12:26:41.869Z,20.35
2022-11-30T12:29:38.120Z,22.35
2022-11-30T12:32:24.396Z,21.65
2022-11-30T12:35:14.668Z,21.00
2022-11-30T12:37:56.011Z,20.75
2022-11-30T12:40:36.756Z,21.92
2022-11-30T12:43:13.463Z,21.67
2022-11-30T12:45:44.925Z,18.93
2022-11-30T12:48:26.812Z,21.58
2022-11-30T12:51:08.688Z,21.02
2022-11-30T12:53:45.016Z,21.38
2022-11-30T12:56:27.159Z,21.30
2022-11-30T12:59:07.935Z,20.10
2022-11-30T13:01:53.799Z,19.83
2022-11-30T13:04:28.442Z,19.88
2022-11-30T13:07:02.313Z,19.45
2022-11-30T13:09:35.878Z,20.88
2022-11-30T13:12:08.671Z,20.85
2022-11-30T13:14:38.356Z,20.05
2022-11-30T13:17:09.940Z,22.70
2022-11-30T13:19:51.437Z,21.98
2022-11-30T13:22:25.867Z,21.00
2022-11-30T13:25:01.378Z,21.73
2022-11-30T13:27:40.098Z,18.90
2022-11-30T13:30:26.311Z,23.92
2022-11-30T13:32:58.713Z,21.95
2022-11-30T13:35:54.610Z,19.20
2022-11-30T13:38:39.746Z,24.40
2022-11-30T13:41:09.731Z,20.60
2022-11-30T13:43:45.158Z,20.98
2022-11-30T13:46:17.558Z,21.17
2022-11-30T13:48:46.585Z,20.88
2022-11-30T13:51:34.437Z,20.52
2022-11-30T13:54:36.111Z,20.42
2022-11-30T13:57:16.332Z,22.08
2022-11-30T13:59:51.519Z,19.40
2022-11-30T14:03:00.006Z,21.95
2022-11-30T14:05:39.507Z,23.02
2022-11-30T14:08:33.186Z,21.73
2022-11-30T14:11:42.311Z,24.70
2022-11-30T14:14:45.614Z,20.85
2022-11-30T14:17:19.950Z,24.15
2022-11-30T14:19:51.129Z,21.65
2022-11-30T14:22:19.607Z,21.52
2022-11-30T14:24:49.726Z,21.67
2022-11-30T14:27:21.087Z,19.45
2022-11-30T14:29:53.721Z,22.60
2022-11-30T14:32:35.052Z,19.25
2022-11-30T14:35:09.213Z,24.27
2022-11-30T14:37:45.835Z,24.50
2022-11-30T14:40:19.977Z,22.93
2022-11-30T14:42:50.601Z,21.70
2022-11-30T14:45:24.643Z,26.73
2022-11-30T14:47:54.951Z,20.60
2022-11-30T14:50:26.372Z,23.45
2022-11-30T14:53:04.236Z,25.25
2022-11-30T14:55:39.880Z,26.50
2022-11-30T14:58:18.913Z,23.73
2022-11-30T15:00:49.056Z,25.02
2022-11-30T15:03:21.305Z,25.23
2022-11-30T15:05:52.789Z,26.67
2022-11-30T15:08:22.034Z,30.15
2022-11-30T15:10:50.619Z,31.02
2022-11-30T15:13:21.097Z,26.50
2022-11-30T15:15:55.725Z,27.80
2022-11-30T15:18:24.772Z,21.95
2022-11-30T15:20:56.932Z,22.38
2022-11-30T15:23:25.452Z,23.83
2022-11-30T15:25:57.587Z,22.50
2022-11-30T15:28:29.702Z,20.73
2022-11-30T15:31:03.904Z,22.83
2022-11-30T15:33:37.759Z,22.77
2022-11-30T15:36:23.415Z,25.50
2022-11-30T15:38:54.721Z,22.45
2022-11-30T15:41:25.590Z,23.20
2022-11-30T15:43:56.057Z,22.30
2022-11-30T15:46:34.620Z,24.02
2022-11-30T15:49:16.857Z,21.23
2022-11-30T15:51:47.653Z,21.35
2022-11-30T15:54:15.903Z,21.15
2022-11-30T15:56:57.130Z,24.50
2022-11-30T15:59:27.260Z,21.40
2022-11-30T16:02:04.883Z,22.73
2022-11-30T16:05:10.867Z,21.70
2022-11-30T16:07:50.593Z,23.08
2022-11-30T16:10:22.793Z,25.90
2022-11-30T16:12:52.418Z,23.08
2022-11-30T16:15:23.320Z,22.40
2022-11-30T16:17:59.470Z,21.35
2022-11-30T16:20:27.981Z,22.35
2022-11-30T16:22:58.813Z,22.23
2022-11-30T16:25:29.271Z,20.42
2022-11-30T16:27:57.437Z,19.60
2022-11-30T16:30:25.808Z,23.70
2022-11-30T16:32:55.319Z,21.23
2022-11-30T16:35:27.081Z,22.38
2022-11-30T16:37:55.246Z,20.80
2022-11-30T16:40:23.503Z,22.20
2022-11-30T16:42:52.292Z,21.33
2022-11-30T16:45:21.956Z,22.75
2022-11-30T16:47:50.490Z,22.17
2022-11-30T16:50:20.836Z,19.55
2022-11-30T16:52:48.980Z,21.50
2022-11-30T16:55:20.759Z,22.52
2022-11-30T16:57:49.572Z,21.42
2022-11-30T17:00:20.705Z,21.60
2022-11-30T17:02:54.897Z,22.75
2022-11-30T17:05:24.706Z,22.70
2022-11-30T17:07:53.082Z,21.00
2022-11-30T17:10:21.939Z,23.98
2022-11-30T17:12:50.564Z,22.48
2022-11-30T17:15:20.809Z,21.20
2022-11-30T17:17:49.264Z,20.02
2022-11-30T17:20:18.195Z,20.15
2022-11-30T17:22:47.670Z,21.65
2022-11-30T17:25:18.354Z,23.63
2022-11-30T17:27:46.998Z,21.75
2022-11-30T17:30:18.088Z,23.65
2022-11-30T17:32:50.075Z,20.13
2022-11-30T17:35:19.039Z,23.13
2022-11-30T17:37:48.619Z,21.52
2022-11-30T17:40:16.950Z,21.00
2022-11-30T17:42:45.546Z,22.58
2022-11-30T17:45:13.733Z,21.13
2022-11-30T17:47:41.836Z,21.75
2022-11-30T17:50:13.789Z,20.77
2022-11-30T17:52:42.053Z,23.27
2022-11-30T17:55:11.809Z,21.85
2022-11-30T17:57:40.000Z,22.40
2022-11-30T18:00:09.699Z,22.40
2022-11-30T18:02:37.896Z,24.15
2022-11-30T18:05:07.197Z,23.52
2022-11-30T18:07:35.461Z,23.75
2022-11-30T18:10:03.745Z,24.30
2022-11-30T18:12:33.196Z,26.20
2022-11-30T18:15:01.403Z,25.25
2022-11-30T18:17:29.471Z,23.20
2022-11-30T18:19:57.617Z,22.17
2022-11-30T18:22:25.768Z,22.13
2022-11-30T18:24:56.242Z,23.60
2022-11-30T18:27:26.405Z,22.58
2022-11-30T18:29:55.923Z,22.45
2022-11-30T18:32:24.021Z,23.67
2022-11-30T18:34:52.074Z,26.27
2022-11-30T18:37:27.198Z,20.88
2022-11-30T18:39:55.534Z,25.02
2022-11-30T18:42:23.628Z,21.77
2022-11-30T18:44:51.667Z,21.00
2022-11-30T18:47:21.091Z,22.48
2022-11-30T18:49:49.396Z,22.23
2022-11-30T18:52:17.583Z,23.00
2022-11-30T18:54:52.346Z,22.90
2022-11-30T18:57:21.072Z,22.48
2022-11-30T18:59:53.685Z,23.00
2022-11-30T19:02:23.514Z,25.08
2022-11-30T19:04:51.705Z,21.05
2022-11-30T19:07:19.792Z,23.15
2022-11-30T19:09:47.949Z,22.80
2022-11-30T19:12:16.175Z,21.75
2022-11-30T19:14:45.717Z,22.73
2022-11-30T19:17:14.133Z,23.75
2022-11-30T19:19:43.598Z,21.88
2022-11-30T19:22:11.767Z,21.75
2022-11-30T19:24:39.908Z,23.27
2022-11-30T19:27:10.120Z,20.80
2022-11-30T19:29:38.324Z,22.25
2022-11-30T19:32:06.777Z,21.55
2022-11-30T19:34:35.082Z,22.75
2022-11-30T19:37:06.924Z,25.15
2022-11-30T19:39:35.109Z,20.67
2022-11-30T19:42:03.206Z,23.58
2022-11-30T19:44:31.274Z,19.98
2022-11-30T19:46:59.377Z,22.27
2022-11-30T19:49:27.445Z,21.55
2022-11-30T19:51:55.537Z,20.20
2022-11-30T19:54:27.247Z,21.17
2022-11-30T19:56:57.845Z,20.40
2022-11-30T19:59:26.147Z,19.60
2022-11-30T20:01:54.358Z,20.75
2022-11-30T20:04:23.902Z,21.70
2022-11-30T20:06:52.080Z,22.95
2022-11-30T20:09:20.179Z,19.45
2022-11-30T20:11:50.107Z,21.70
2022-11-30T20:14:18.752Z,21.65
2022-11-30T20:16:52.715Z,23.27
2022-11-30T20:19:21.053Z,24.42
2022-11-30T20:21:49.445Z,22.48
2022-11-30T20:24:17.588Z,19.98
2022-11-30T20:26:46.175Z,21.83
2022-11-30T20:29:17.317Z,22.15
2022-11-30T20:31:46.965Z,21.23
2022-11-30T20:34:15.268Z,21.23
2022-11-30T20:36:43.449Z,23.00
2022-11-30T20:39:12.508Z,21.55
2022-11-30T20:41:40.800Z,23.45
2022-11-30T20:44:08.901Z,22.75
2022-11-30T20:46:38.489Z,22.65
2022-11-30T20:49:15.134Z,22.25
2022-11-30T20:51:43.201Z,21.13
2022-11-30T20:54:12.710Z,21.10
2022-11-30T20:56:41.909Z,22.27
2022-11-30T20:59:15.270Z,22.80
2022-11-30T21:01:46.676Z,20.38
2022-11-30T21:04:14.814Z,21.92
2022-11-30T21:06:46.210Z,21.00
2022-11-30T21:09:14.717Z,23.85
2022-11-30T21:11:43.170Z,20.85
2022-11-30T21:14:11.613Z,21.85
2022-11-30T21:16:40.823Z,22.60
2022-11-30T21:19:11.712Z,21.85
2022-11-30T21:21:40.007Z,23.67
2022-11-30T21:24:09.862Z,20.75
2022-11-30T21:26:39.942Z,21.02
2022-11-30T21:29:11.636Z,22.45
2022-11-30T21:31:40.329Z,22.70
2022-11-30T21:34:10.111Z,23.05
2022-11-30T21:36:38.366Z,19.95
2022-11-30T21:39:08.313Z,22.33
2022-11-30T21:41:38.525Z,20.15
2022-11-30T21:44:07.461Z,20.27
2022-11-30T21:46:35.821Z,20.85
2022-11-30T21:49:04.376Z,21.70
2022-11-30T21:51:34.215Z,23.08
2022-11-30T21:54:04.660Z,20.27
2022-11-30T21:56:34.531Z,20.85
2022-11-30T21:59:06.297Z,18.30
2022-11-30T22:01:37.576Z,22.13
2022-11-30T22:04:08.037Z,19.52
2022-11-30T22:06:39.390Z,19.92
2022-11-30T22:09:09.520Z,18.90
2022-11-30T22:11:39.599Z,20.33
2022-11-30T22:14:08.743Z,21.88
2022-11-30T22:16:37.075Z,21.08
2022-11-30T22:19:06.807Z,18.83
2022-11-30T22:21:36.065Z,19.10
2022-11-30T22:24:07.575Z,20.55
2022-11-30T22:26:37.416Z,17.85
2022-11-30T22:29:08.329Z,21.85
2022-11-30T22:31:39.560Z,19.73
2022-11-30T22:34:08.275Z,17.98
2022-11-30T22:36:38.736Z,19.23
2022-11-30T22:39:12.057Z,18.90
2022-11-30T22:41:40.843Z,20.65
2022-11-30T22:44:09.377Z,20.15
2022-11-30T22:46:38.444Z,21.45
2022-11-30T22:49:09.297Z,20.83
2022-11-30T22:51:38.617Z,19.92
2022-11-30T22:54:08.597Z,19.92
2022-11-30T22:56:38.555Z,18.90
2022-11-30T22:59:06.655Z,19.70
2022-11-30T23:01:36.469Z,17.88
2022-11-30T23:04:06.699Z,17.90
2022-11-30T23:06:35.756Z,21.67
2022-11-30T23:09:05.507Z,19.65
2022-11-30T23:11:35.075Z,18.80
2022-11-30T23:14:08.070Z,20.33
2022-11-30T23:16:38.790Z,20.80
2022-11-30T23:19:07.395Z,19.38
2022-11-30T23:21:41.358Z,20.55
2022-11-30T23:24:14.569Z,21.40
2022-11-30T23:26:44.438Z,21.02
2022-11-30T23:29:15.049Z,19.42
2022-11-30T23:31:44.778Z,21.88
2022-11-30T23:34:14.743Z,18.75
2022-11-30T23:36:42.977Z,19.83
2022-11-30T23:39:14.783Z,17.65
2022-11-30T23:41:47.260Z,19.48
2022-11-30T23:44:17.466Z,18.75
2022-11-30T23:46:46.105Z,18.17
2022-11-30T23:49:14.944Z,19.63
2022-11-30T23:51:43.076Z,19.27
2022-11-30T23:54:11.141Z,18.02
2022-11-30T23:56:39.235Z,17.77
2022-11-30T23:59:08.874Z,19.73
